Share Air
"01/12 @rjch_metar:RJCH 122110Z 04004KT 9999 FEW030 SCT050 BKN060 M11/M13 Q1020 RMK 1CU030 3CU050 5CU060 A3013 [tweet auto post]" #nearair http://nearair.net/na.php?id=5235767


Tweet


Share




Copyright (C) 2011 Entatonic.net.
All Rights Reserved.